Time;durP1;ratioP1;P1;durP2;ratioP2;P2;SDS_P1;SDS_P2;PMS_P1;PMS_P2;Temp;Humidity;BMP_temperature;BMP_pressure;BME280_temperature;BME280_humidity;BME280_pressure;Samples;Min_cycle;Max_cycle;Signal;HPM_P1;HPM_P2
2023/10/12 00:02:00;;;;;;;0.43;0.43;;;;;;;4.38;100.00;100804.50;4998931;28;20111;-78
2023/10/12 00:04:43;;;;;;;0.50;0.50;;;;;;;4.30;100.00;100810.50;5017452;28;20099;-78
2023/10/12 00:07:17;;;;;;;0.50;0.50;;;;;;;4.24;100.00;100803.06;5000867;28;20026;-78
2023/10/12 00:12:29;;;;;;;0.40;0.40;;;;;;;4.07;100.00;100793.88;5044337;28;20040;-78
2023/10/12 00:14:55;;;;;;;0.50;0.50;;;;;;;3.96;100.00;100801.94;5018799;28;20044;-78
2023/10/12 00:17:24;;;;;;;0.40;0.40;;;;;;;3.93;100.00;100808.38;5035188;28;20036;-78
2023/10/12 00:19:53;;;;;;;0.50;0.50;;;;;;;3.90;100.00;100795.34;4998810;28;20045;-78
2023/10/12 00:22:19;;;;;;;0.40;0.40;;;;;;;3.84;100.00;100789.72;5018085;28;20072;-78
2023/10/12 00:24:45;;;;;;;0.50;0.50;;;;;;;3.79;100.00;100787.44;4986180;28;20041;-78
2023/10/12 00:27:12;;;;;;;0.40;0.40;;;;;;;3.73;100.00;100790.59;5002764;28;20079;-78
2023/10/12 00:29:39;;;;;;;0.50;0.50;;;;;;;3.65;100.00;100783.31;5033219;28;20076;-78
2023/10/12 00:32:09;;;;;;;0.50;0.50;;;;;;;3.65;100.00;100788.63;5022464;28;20037;-78
2023/10/12 00:34:38;;;;;;;0.50;0.50;;;;;;;3.59;100.00;100796.25;5022263;28;20043;-78
2023/10/12 00:37:06;;;;;;;0.40;0.40;;;;;;;3.52;100.00;100796.78;5022314;28;20059;-78
2023/10/12 00:42:16;;;;;;;0.50;0.50;;;;;;;3.41;100.00;100794.16;5020444;28;20037;-78
2023/10/12 00:44:41;;;;;;;0.43;0.43;;;;;;;3.32;100.00;100791.47;5018616;28;20037;-78
2023/10/12 00:47:12;;;;;;;0.40;0.40;;;;;;;3.22;100.00;100794.88;5018526;28;20050;-78
2023/10/12 00:49:41;;;;;;;0.50;0.50;;;;;;;3.08;100.00;100803.16;5019231;28;20555;-78
2023/10/12 00:52:15;;;;;;;0.50;0.50;;;;;;;2.97;100.00;100805.84;4987075;28;20087;-78
2023/10/12 00:54:43;;;;;;;0.50;0.50;;;;;;;2.90;100.00;100813.47;5003913;28;20495;-78
2023/10/12 00:57:09;;;;;;;0.50;0.50;;;;;;;2.91;100.00;100803.66;5018518;28;20473;-78
2023/10/12 00:59:36;;;;;;;0.50;0.50;;;;;;;2.85;100.00;100807.69;4998786;28;20041;-78
2023/10/12 01:02:08;;;;;;;0.40;0.40;;;;;;;2.69;100.00;100810.72;5015107;28;20037;-78
2023/10/12 01:04:35;;;;;;;0.40;0.40;;;;;;;2.53;100.00;100815.59;4967077;28;20030;-78
2023/10/12 01:07:01;;;;;;;0.50;0.50;;;;;;;2.68;100.00;100808.22;4998694;28;20129;-78
2023/10/12 01:09:39;;;;;;;0.50;0.50;;;;;;;2.58;100.00;100805.44;5029456;28;20116;-78
2023/10/12 01:12:14;;;;;;;0.50;0.50;;;;;;;2.55;100.00;100813.66;5039263;28;20043;-78
2023/10/12 01:14:47;;;;;;;0.50;0.50;;;;;;;2.55;100.00;100809.19;5022129;28;20029;-78
2023/10/12 01:17:29;;;;;;;0.50;0.50;;;;;;;2.55;100.00;100809.19;5021704;28;20029;-78
2023/10/12 01:19:58;;;;;;;0.50;0.50;;;;;;;2.54;100.00;100806.66;5022212;28;20036;-78
2023/10/12 01:22:27;;;;;;;0.50;0.50;;;;;;;2.56;100.00;100816.16;5021363;28;20111;-78
2023/10/12 01:27:23;;;;;;;0.50;0.50;;;;;;;2.32;100.00;100818.13;5037244;28;20052;-78
2023/10/12 01:29:49;;;;;;;0.40;0.40;;;;;;;2.23;100.00;100810.91;5051580;28;20033;-78
2023/10/12 01:34:52;;;;;;;0.50;0.50;;;;;;;2.12;100.00;100825.03;5017800;28;20037;-78
2023/10/12 01:43:12;;;;;;;0.50;0.50;;;;;;;2.18;100.00;100830.66;5033544;28;20530;-78
2023/10/12 01:45:24;;;;;;;0.50;0.50;;;;;;;2.15;100.00;100828.25;5007276;28;20540;-78
2023/10/12 01:48:07;;;;;;;0.50;0.50;;;;;;;2.12;100.00;100820.56;4999886;28;20099;-78
2023/10/12 01:50:33;;;;;;;0.50;0.50;;;;;;;1.99;100.00;100825.13;5025165;23;20049;-75
2023/10/12 01:53:00;;;;;;;0.50;0.50;;;;;;;1.91;100.00;100819.56;4981558;28;20030;-75
2023/10/12 01:55:30;;;;;;;0.50;0.50;;;;;;;1.87;100.00;100834.00;4997660;28;20042;-74
2023/10/12 01:57:56;;;;;;;0.50;0.50;;;;;;;1.82;100.00;100829.06;4965938;28;20483;-74
2023/10/12 02:00:26;;;;;;;0.50;0.50;;;;;;;1.77;100.00;100833.84;4981384;28;20033;-75
2023/10/12 02:03:01;;;;;;;0.50;0.50;;;;;;;1.80;100.00;100832.78;4997439;28;20038;-74
2023/10/12 02:05:30;;;;;;;0.50;0.50;;;;;;;1.84;100.00;100829.78;4997233;28;20032;-74
2023/10/12 02:07:57;;;;;;;0.50;0.50;;;;;;;1.74;100.00;100834.94;4998262;28;20042;-74
2023/10/12 02:10:24;;;;;;;0.50;0.50;;;;;;;1.74;100.00;100837.59;5000805;28;20053;-74
2023/10/12 02:12:54;;;;;;;0.50;0.50;;;;;;;1.73;100.00;100835.06;5016994;28;20037;-74
2023/10/12 02:15:21;;;;;;;0.50;0.50;;;;;;;1.67;100.00;100825.78;5000813;28;20041;-74
2023/10/12 02:17:50;;;;;;;0.50;0.50;;;;;;;1.53;100.00;100828.63;5016571;28;20030;-74
2023/10/12 02:20:18;;;;;;;0.50;0.50;;;;;;;1.56;100.00;100831.03;5017275;28;20457;-74
2023/10/12 02:22:47;;;;;;;0.50;0.50;;;;;;;1.50;100.00;100820.91;4998633;28;20042;-74
2023/10/12 02:27:42;;;;;;;0.50;0.50;;;;;;;1.41;100.00;100829.56;5015385;28;20034;-77
2023/10/12 02:30:13;;;;;;;0.50;0.50;;;;;;;1.35;100.00;100822.91;4976144;28;20474;-74
2023/10/12 02:32:46;;;;;;;0.50;0.50;;;;;;;1.39;100.00;100823.53;4977787;28;20030;-74
2023/10/12 02:35:14;;;;;;;0.50;0.50;;;;;;;1.51;100.00;100827.91;4992062;28;20478;-74
2023/10/12 02:37:39;;;;;;;0.50;0.50;;;;;;;1.41;100.00;100814.50;4960761;28;20046;-75
2023/10/12 02:40:12;;;;;;;0.45;0.45;;;;;;;1.45;100.00;100815.09;5009432;28;20355;-74
2023/10/12 02:42:38;;;;;;;0.50;0.50;;;;;;;1.37;100.00;100815.69;5006840;28;20033;-74
2023/10/12 02:47:42;;;;;;;0.50;0.50;;;;;;;1.42;100.00;100812.69;4978595;28;20137;-74
2023/10/12 02:52:37;;;;;;;0.50;0.50;;;;;;;1.46;100.00;100793.81;5009694;28;20030;-74
2023/10/12 02:55:08;;;;;;;0.50;0.50;;;;;;;1.49;100.00;100804.16;4993082;28;20030;-73
2023/10/12 02:57:34;;;;;;;0.50;0.50;;;;;;;1.51;100.00;100814.66;4993302;28;20042;-74
2023/10/12 03:00:15;;;;;;;0.50;0.50;;;;;;;1.54;100.00;100817.06;4993464;28;20045;-74
2023/10/12 03:02:44;;;;;;;0.50;0.50;;;;;;;1.58;100.00;100807.91;4991583;28;20042;-74
2023/10/12 03:05:10;;;;;;;0.50;0.50;;;;;;;1.58;100.00;100792.00;4961229;28;20133;-74
2023/10/12 03:07:38;;;;;;;0.50;0.50;;;;;;;1.73;100.00;100796.16;4979097;28;20027;-74
2023/10/12 03:10:23;;;;;;;0.50;0.50;;;;;;;1.61;100.00;100789.13;4980420;28;20049;-74
2023/10/12 03:12:54;;;;;;;0.50;0.50;;;;;;;1.53;100.00;100796.81;4999110;28;20030;-74
2023/10/12 03:15:30;;;;;;;0.50;0.50;;;;;;;1.54;100.00;100801.19;4980694;28;20077;-74
2023/10/12 03:17:58;;;;;;;0.50;0.50;;;;;;;1.51;100.00;100806.72;5000255;28;20414;-74
2023/10/12 03:20:28;;;;;;;0.50;0.50;;;;;;;1.48;100.00;100810.44;4984431;28;20135;-74
2023/10/12 03:23:12;;;;;;;0.50;0.50;;;;;;;1.40;100.00;100804.00;5000593;28;20033;-74
2023/10/12 03:25:51;;;;;;;0.40;0.40;;;;;;;1.40;100.00;100793.41;4999424;28;20032;-75
2023/10/12 03:28:30;;;;;;;0.50;0.50;;;;;;;1.29;100.00;100776.50;4999333;28;20033;-75
2023/10/12 03:31:14;;;;;;;0.50;0.50;;;;;;;1.22;100.00;100780.59;5017771;28;20025;-75
2023/10/12 03:33:46;;;;;;;0.50;0.50;;;;;;;1.21;100.00;100784.19;5002096;28;20396;-74
2023/10/12 03:36:22;;;;;;;0.50;0.50;;;;;;;1.18;100.00;100778.28;5000242;28;20037;-74
2023/10/12 03:38:58;;;;;;;0.50;0.50;;;;;;;1.18;100.00;100789.72;5015728;28;20488;-74
2023/10/12 03:43:54;;;;;;;0.50;0.50;;;;;;;1.16;100.00;100796.94;5015803;28;20029;-74
2023/10/12 03:46:32;;;;;;;0.50;0.50;;;;;;;1.17;100.00;100796.00;5015752;28;20511;-74
2023/10/12 03:51:38;;;;;;;0.50;0.50;;;;;;;1.18;100.00;100812.72;5016785;28;20156;-74
2023/10/12 03:56:48;;;;;;;0.50;0.50;;;;;;;1.04;100.00;100811.09;5019809;28;20128;-74
2023/10/12 03:59:43;;;;;;;0.50;0.50;;;;;;;1.04;100.00;100806.66;4987078;28;20359;-74
2023/10/12 04:02:13;;;;;;;0.60;0.60;;;;;;;1.31;100.00;100803.75;5006654;28;20048;-74
2023/10/12 04:04:45;;;;;;;;;;;;;;;1.41;100.00;100805.72;5004421;28;20068;-75
2023/10/12 04:07:17;;;;;;;0.50;0.50;;;;;;;1.38;100.00;100813.91;5019923;28;19952;-74
2023/10/12 04:09:43;;;;;;;0.50;0.50;;;;;;;1.22;100.00;100814.19;4987521;28;20041;-74
2023/10/12 04:14:53;;;;;;;0.50;0.50;;;;;;;1.13;100.00;100817.50;5018591;28;20052;-74
2023/10/12 04:17:41;;;;;;;0.50;0.50;;;;;;;1.16;100.00;100806.69;5003656;28;20037;-74
2023/10/12 04:20:21;;;;;;;0.50;0.50;;;;;;;1.05;100.00;100791.59;5005038;28;20040;-74
2023/10/12 04:25:22;;;;;;;0.50;0.50;;;;;;;0.90;100.00;100801.53;5002494;28;20124;-74
2023/10/12 04:27:51;;;;;;;0.50;0.50;;;;;;;0.80;100.00;100798.72;5019929;28;20022;-74
2023/10/12 04:30:32;;;;;;;0.50;0.50;;;;;;;0.80;100.00;100800.50;5002478;28;20036;-74
2023/10/12 04:33:11;;;;;;;0.50;0.50;;;;;;;0.75;100.00;100798.19;4987277;28;20497;-74
2023/10/12 04:43:39;;;;;;;0.55;0.55;;;;;;;0.70;100.00;100792.38;5018211;28;20041;-74
2023/10/12 04:48:43;;;;;;;0.50;0.50;;;;;;;0.81;100.00;100807.50;5019745;28;20092;-75
2023/10/12 04:51:18;;;;;;;0.50;0.50;;;;;;;0.86;100.00;100805.34;5002601;28;20128;-74
2023/10/12 04:53:57;;;;;;;0.50;0.50;;;;;;;1.04;100.00;100811.94;5003421;28;20041;-74
2023/10/12 04:56:35;;;;;;;0.50;0.50;;;;;;;1.11;100.00;100820.25;5002528;28;20033;-75
2023/10/12 04:59:01;;;;;;;0.50;0.50;;;;;;;1.16;100.00;100807.53;5003678;28;20031;-74
2023/10/12 05:01:40;;;;;;;0.50;0.50;;;;;;;1.42;100.00;100831.25;4985888;28;20033;-74
2023/10/12 05:04:09;;;;;;;0.50;0.50;;;;;;;1.40;100.00;100827.84;5003743;28;20025;-74
2023/10/12 05:06:46;;;;;;;0.50;0.50;;;;;;;1.33;100.00;100838.06;5018133;28;20069;-74
2023/10/12 05:09:12;;;;;;;0.50;0.50;;;;;;;1.32;100.00;100839.03;5033344;28;20033;-74
2023/10/12 05:11:39;;;;;;;0.50;0.50;;;;;;;1.21;100.00;100833.69;4985720;28;20037;-74
2023/10/12 05:14:14;;;;;;;0.50;0.50;;;;;;;1.11;100.00;100836.16;5018351;28;20060;-74
2023/10/12 05:16:45;;;;;;;0.50;0.50;;;;;;;0.97;100.00;100845.13;4986403;28;20036;-74
2023/10/12 05:19:12;;;;;;;0.50;0.50;;;;;;;0.90;100.00;100838.59;5018479;28;20039;-74
2023/10/12 05:21:38;;;;;;;0.50;0.50;;;;;;;0.79;100.00;100843.81;5001508;28;20056;-74
2023/10/12 05:24:04;;;;;;;0.50;0.50;;;;;;;0.75;100.00;100837.91;4985212;28;20051;-74
2023/10/12 05:26:30;;;;;;;0.50;0.50;;;;;;;0.88;100.00;100830.75;4985184;28;20068;-74
2023/10/12 05:32:18;;;;;;;0.50;0.50;;;;;;;0.86;100.00;100824.72;5017523;28;20105;-74
2023/10/12 05:34:45;;;;;;;0.50;0.50;;;;;;;0.83;100.00;100826.75;5003600;28;20100;-74
2023/10/12 05:37:24;;;;;;;0.50;0.50;;;;;;;0.81;100.00;100834.78;5001472;28;20048;-74
2023/10/12 05:39:55;;;;;;;0.50;0.50;;;;;;;0.77;100.00;100828.06;5018970;28;20067;-74
2023/10/12 05:42:24;;;;;;;0.50;0.50;;;;;;;0.70;100.00;100831.25;5001850;28;20128;-74
2023/10/12 05:44:51;;;;;;;0.50;0.50;;;;;;;0.67;100.00;100834.13;5001227;28;20029;-74
2023/10/12 05:47:29;;;;;;;0.50;0.50;;;;;;;0.63;100.00;100836.13;5001116;28;20034;-74
2023/10/12 05:49:57;;;;;;;0.50;0.50;;;;;;;0.59;100.00;100832.03;4987852;28;20492;-74
2023/10/12 05:52:24;;;;;;;0.50;0.50;;;;;;;0.72;100.00;100824.88;5000678;28;20075;-74
2023/10/12 05:54:57;;;;;;;0.50;0.50;;;;;;;0.76;100.00;100821.03;5000029;28;20076;-74
2023/10/12 05:57:29;;;;;;;0.50;0.50;;;;;;;0.68;100.00;100828.69;5001108;28;20083;-75
2023/10/12 05:59:58;;;;;;;0.50;0.50;;;;;;;0.68;100.00;100820.75;5001357;28;20469;-75
2023/10/12 06:02:26;;;;;;;0.50;0.50;;;;;;;0.64;100.00;100821.94;5033555;28;20065;-75
2023/10/12 06:04:52;;;;;;;0.50;0.50;;;;;;;0.65;100.00;100823.63;5016806;28;20033;-74
2023/10/12 06:07:17;;;;;;;0.50;0.50;;;;;;;0.67;100.00;100819.06;5000880;28;20033;-74
2023/10/12 06:09:43;;;;;;;0.50;0.50;;;;;;;0.65;100.00;100821.81;4984570;28;20071;-75
2023/10/12 06:12:12;;;;;;;0.50;0.50;;;;;;;0.61;100.00;100816.88;4984627;28;20036;-75
2023/10/12 06:14:38;;;;;;;0.50;0.50;;;;;;;0.57;100.00;100812.75;4984608;28;20183;-74
2023/10/12 06:17:07;;;;;;;0.50;0.50;;;;;;;0.52;100.00;100818.38;5000103;28;20029;-75
2023/10/12 06:19:36;;;;;;;0.50;0.50;;;;;;;0.49;100.00;100815.09;4999761;28;20041;-75
2023/10/12 06:22:23;;;;;;;0.50;0.50;;;;;;;0.52;100.00;100828.94;5001158;28;20033;-74
2023/10/12 06:24:52;;;;;;;0.50;0.50;;;;;;;0.57;100.00;100824.19;5018477;28;20026;-74
2023/10/12 06:29:51;;;;;;;0.50;0.50;;;;;;;0.69;100.00;100814.53;5015928;28;20026;-74
2023/10/12 06:32:19;;;;;;;0.50;0.50;;;;;;;0.67;100.00;100811.13;5016612;28;20112;-75
2023/10/12 06:35:11;;;;;;;0.50;0.50;;;;;;;0.60;100.00;100815.19;5000550;28;20454;-75
2023/10/12 06:38:15;;;;;;;0.50;0.50;;;;;;;0.49;100.00;100823.03;5003671;28;20056;-74
2023/10/12 06:40:38;;;;;;;0.50;0.50;;;;;;;0.30;100.00;100808.47;5020951;28;20040;-75
2023/10/12 06:45:54;;;;;;;0.50;0.50;;;;;;;0.23;100.00;100809.84;5000660;28;20025;-74
2023/10/12 06:51:02;;;;;;;0.50;0.50;;;;;;;0.31;100.00;100820.72;5016722;28;20040;-74
2023/10/12 06:53:44;;;;;;;0.50;0.50;;;;;;;0.41;100.00;100821.78;4999817;28;20128;-75
2023/10/12 07:01:51;;;;;;;0.57;0.57;;;;;;;0.72;100.00;100819.59;5018546;28;20108;-74
2023/10/12 07:04:53;;;;;;;0.50;0.50;;;;;;;0.78;100.00;100827.09;5002136;28;20531;-74
2023/10/12 07:07:36;;;;;;;0.50;0.50;;;;;;;0.82;100.00;100833.84;4987917;28;20037;-75
2023/10/12 07:12:48;;;;;;;0.50;0.50;;;;;;;0.93;100.00;100837.50;5016365;28;20033;-77
2023/10/12 07:15:21;;;;;;;0.50;0.50;;;;;;;1.02;100.00;100826.25;4999953;28;20037;-74
2023/10/12 07:17:49;;;;;;;0.50;0.50;;;;;;;1.21;100.00;100821.28;5000155;28;20061;-75
2023/10/12 07:22:59;;;;;;;0.50;0.50;;;;;;;1.47;100.00;100827.28;5001341;28;20033;-75
2023/10/12 07:25:26;;;;;;;0.50;0.50;;;;;;;1.51;100.00;100823.44;4999530;28;20540;-74
2023/10/12 07:27:59;;;;;;;0.50;0.50;;;;;;;1.67;100.00;100817.00;5000710;28;20061;-75
2023/10/12 07:30:36;;;;;;;0.50;0.50;;;;;;;1.76;100.00;100816.28;5001993;28;20032;-75
2023/10/12 07:33:10;;;;;;;0.60;0.60;;;;;;;1.88;100.00;100823.31;5020906;28;20033;-75
2023/10/12 07:35:38;;;;;;;0.50;0.50;;;;;;;1.98;100.00;100818.09;5003526;28;20083;-75
2023/10/12 07:38:13;;;;;;;0.60;0.60;;;;;;;2.15;100.00;100815.00;5003853;28;20045;-75
2023/10/12 07:43:20;;;;;;;0.60;0.60;;;;;;;2.52;100.00;100816.56;5019320;28;20681;-76
2023/10/12 07:45:48;;;;;;;0.50;0.50;;;;;;;2.81;100.00;100808.91;5019656;28;20111;-75
2023/10/12 07:48:29;;;;;;;0.50;0.50;;;;;;;2.95;100.00;100805.97;5003053;28;20044;-75
2023/10/12 07:50:59;;;;;;;0.50;0.50;;;;;;;3.14;100.00;100789.34;5004389;28;20052;-74
2023/10/12 07:53:29;;;;;;;;;;;;;;;3.50;100.00;100801.38;5004568;28;20064;-74
2023/10/12 07:56:06;;;;;;;0.50;0.50;;;;;;;3.81;100.00;100806.78;5019457;28;19952;-75
2023/10/12 07:58:40;;;;;;;0.50;0.50;;;;;;;3.94;100.00;100794.13;5020534;28;20033;-74
2023/10/12 08:03:50;;;;;;;0.50;0.50;;;;;;;4.24;100.00;100815.53;5020594;28;20473;-74
2023/10/12 08:06:42;;;;;;;0.50;0.50;;;;;;;4.37;100.00;100824.97;4986190;28;20064;-74
2023/10/12 08:10:08;;;;;;;0.50;0.50;;;;;;;4.55;100.00;100821.66;5022209;28;20029;-72
2023/10/12 08:12:23;;;;;;;0.50;0.50;;;;;;;4.92;100.00;100823.72;4998162;28;20095;-74
2023/10/12 08:14:48;;;;;;;0.50;0.50;;;;;;;5.98;100.00;100814.88;5005427;28;20064;-73
2023/10/12 08:17:33;;;;;;;0.50;0.50;;;;;;;6.34;100.00;100825.72;4986707;28;20029;-73
2023/10/12 08:22:46;;;;;;;0.50;0.50;;;;;;;7.58;100.00;100818.03;5021688;28;20465;-73
2023/10/12 08:25:14;;;;;;;0.60;0.60;;;;;;;8.08;100.00;100809.34;5003019;28;20543;-73
2023/10/12 08:27:52;;;;;;;0.50;0.50;;;;;;;8.69;100.00;100816.34;5019077;28;20115;-73
2023/10/12 08:30:48;;;;;;;0.50;0.50;;;;;;;9.17;100.00;100806.75;5020546;28;20461;-73
2023/10/12 08:33:14;;;;;;;0.63;0.63;;;;;;;9.57;100.00;100815.84;5022408;28;20116;-74
2023/10/12 08:36:17;;;;;;;0.50;0.50;;;;;;;9.78;100.00;100822.53;5034984;28;20034;-73
2023/10/12 08:38:40;;;;;;;0.60;0.60;;;;;;;9.96;100.00;100814.31;5004711;28;20021;-73
2023/10/12 08:43:45;;;;;;;0.55;0.55;;;;;;;8.93;100.00;100812.06;5002694;28;20068;-73
2023/10/12 08:46:12;;;;;;;0.50;0.50;;;;;;;9.77;100.00;100819.03;5002953;28;20049;-74
2023/10/12 08:48:52;;;;;;;0.60;0.60;;;;;;;10.32;100.00;100820.13;5035785;28;20416;-74
2023/10/12 08:51:23;;;;;;;0.55;0.55;;;;;;;10.57;100.00;100828.94;5020398;28;20366;-75
2023/10/12 08:53:49;;;;;;;0.60;0.60;;;;;;;10.85;100.00;100833.84;5018450;28;20087;-73
2023/10/12 08:56:18;;;;;;;0.57;0.57;;;;;;;10.98;100.00;100834.13;5002230;28;20087;-73
2023/10/12 08:58:50;;;;;;;0.50;0.50;;;;;;;11.09;100.00;100832.91;5002594;28;20041;-73
2023/10/12 09:01:31;;;;;;;0.50;0.50;;;;;;;11.16;100.00;100836.53;5034135;28;20021;-75
2023/10/12 09:04:11;;;;;;;0.60;0.60;;;;;;;11.28;100.00;100832.44;5020131;28;20064;-73
2023/10/12 09:09:09;;;;;;;0.60;0.60;;;;;;;11.94;100.00;100837.34;5019031;28;20033;-75
2023/10/12 09:11:35;;;;;;;0.60;0.60;;;;;;;12.10;100.00;100845.25;5001922;28;20035;-74
2023/10/12 09:14:13;;;;;;;0.60;0.60;;;;;;;12.56;100.00;100841.56;5001934;28;20048;-75
2023/10/12 09:16:38;;;;;;;0.60;0.60;;;;;;;12.77;100.00;100837.06;5019593;28;20033;-75
2023/10/12 09:19:23;;;;;;;0.60;0.60;;;;;;;12.66;100.00;100845.66;5001459;28;20033;-74
2023/10/12 09:21:57;;;;;;;0.50;0.50;;;;;;;12.47;100.00;100838.13;5003436;28;20041;-74
2023/10/12 09:24:30;;;;;;;0.52;0.52;;;;;;;12.45;100.00;100840.16;5002384;28;20409;-74
2023/10/12 09:27:01;;;;;;;0.50;0.50;;;;;;;12.79;100.00;100841.44;5018620;28;20025;-75
2023/10/12 09:29:42;;;;;;;0.85;0.85;;;;;;;12.66;100.00;100836.72;4986007;28;20052;-74
2023/10/12 09:32:23;;;;;;;0.70;0.70;;;;;;;12.46;100.00;100840.00;5003591;28;20485;-75
2023/10/12 09:37:47;;;;;;;0.60;0.60;;;;;;;12.72;100.00;100836.78;5004445;28;20041;-74
2023/10/12 09:40:26;;;;;;;0.95;0.95;;;;;;;12.80;100.00;100833.16;4987105;28;20037;-75
2023/10/12 09:42:58;;;;;;;0.60;0.60;;;;;;;12.96;100.00;100826.69;4986350;28;20033;-75
2023/10/12 09:45:27;;;;;;;0.60;0.60;;;;;;;12.67;100.00;100833.81;5000635;28;20029;-74
2023/10/12 09:47:57;;;;;;;0.68;0.68;;;;;;;12.74;100.00;100834.75;5000729;28;20037;-74
2023/10/12 09:50:32;;;;;;;0.50;0.50;;;;;;;12.10;100.00;100829.91;5018044;28;20128;-74
2023/10/12 09:52:58;;;;;;;0.43;0.43;;;;;;;11.65;100.00;100836.22;5034244;28;20033;-75
2023/10/12 09:55:32;;;;;;;0.40;0.40;;;;;;;11.33;100.00;100840.00;4983474;28;20463;-74
2023/10/12 09:58:13;;;;;;;0.60;0.60;;;;;;;11.46;100.00;100834.84;5017109;28;20485;-74
2023/10/12 10:01:15;;;;;;;0.50;0.50;;;;;;;12.14;100.00;100833.06;5017063;28;20049;-74
2023/10/12 10:03:52;;;;;;;0.60;0.60;;;;;;;12.98;100.00;100835.44;5017109;28;20508;-75
2023/10/12 10:06:37;;;;;;;1.35;1.35;;;;;;;13.59;100.00;100832.38;5002780;28;20049;-75
2023/10/12 10:09:19;;;;;;;0.50;0.50;;;;;;;13.24;100.00;100829.50;5031801;28;20029;-74
2023/10/12 10:11:46;;;;;;;0.40;0.40;;;;;;;13.08;100.00;100830.59;5000857;28;20543;-74
2023/10/12 10:14:26;;;;;;;0.55;0.55;;;;;;;13.34;100.00;100838.19;5000425;28;20045;-75
2023/10/12 10:17:14;;;;;;;10.25;1.30;;;;;;;13.99;100.00;100844.34;5000776;28;20037;-75
2023/10/12 10:19:51;;;;;;;0.70;0.70;;;;;;;13.99;100.00;100844.34;4999731;28;20042;-75
2023/10/12 10:22:21;;;;;;;0.50;0.50;;;;;;;15.18;100.00;100816.28;5016041;28;20025;-73
2023/10/12 10:24:50;;;;;;;0.60;0.60;;;;;;;15.39;100.00;100831.53;5000176;28;20026;-73
2023/10/12 10:27:17;;;;;;;0.50;0.50;;;;;;;15.14;100.00;100832.09;4984763;28;20029;-74
2023/10/12 10:29:56;;;;;;;0.40;0.40;;;;;;;14.32;100.00;100824.00;5000031;28;20389;-75
2023/10/12 10:32:29;;;;;;;0.50;0.50;;;;;;;13.96;100.00;100815.03;4999870;28;20040;-75
2023/10/12 10:35:12;;;;;;;;;;;;;;;13.65;100.00;100815.38;4985297;28;20484;-74
2023/10/12 10:37:58;;;;;;;0.40;0.40;;;;;;;12.86;100.00;100805.44;5018736;28;19961;-74
2023/10/12 10:40:44;;;;;;;0.50;0.50;;;;;;;12.36;100.00;100809.78;5033099;28;20036;-74
2023/10/12 10:43:14;;;;;;;0.50;0.50;;;;;;;12.34;100.00;100800.19;5000128;28;20030;-74
2023/10/12 10:46:03;;;;;;;0.88;0.88;;;;;;;12.51;100.00;100807.06;5000585;28;20087;-75
2023/10/12 10:48:29;;;;;;;0.75;0.75;;;;;;;12.53;100.00;100799.63;4984934;28;20052;-76
2023/10/12 10:51:10;;;;;;;0.40;0.40;;;;;;;12.50;100.00;100790.03;4981932;28;20038;-76
2023/10/12 10:53:41;;;;;;;0.50;0.50;;;;;;;12.42;100.00;100794.69;4985184;28;20464;-75
2023/10/12 10:56:13;;;;;;;0.50;0.50;;;;;;;12.60;100.00;100792.47;4999991;28;20078;-75
2023/10/12 10:58:40;;;;;;;0.63;0.63;;;;;;;12.80;100.00;100783.75;5000562;28;20079;-75
2023/10/12 11:01:12;;;;;;;0.50;0.50;;;;;;;13.06;100.00;100791.31;4999564;28;20378;-76
2023/10/12 11:03:39;;;;;;;0.50;0.50;;;;;;;13.28;100.00;100786.78;5016089;28;20465;-75
2023/10/12 11:06:36;;;;;;;0.50;0.50;;;;;;;13.37;100.00;100786.47;4967652;28;20056;-76
2023/10/12 11:09:06;;;;;;;9.05;4.75;;;;;;;13.26;100.00;100783.41;4986339;28;20057;-76
2023/10/12 11:11:38;;;;;;;9.50;5.50;;;;;;;13.05;100.00;100782.38;5015813;28;20477;-76
2023/10/12 11:14:05;;;;;;;5.87;2.70;;;;;;;12.91;100.00;100767.06;4983791;28;20037;-76
2023/10/12 11:16:32;;;;;;;4.38;2.38;;;;;;;12.97;100.00;100758.22;5015683;28;20599;-75
2023/10/12 11:18:58;;;;;;;9.32;4.30;;;;;;;13.46;100.00;100746.66;4998701;28;20493;-75
2023/10/12 11:21:27;;;;;;;8.30;4.25;;;;;;;13.69;100.00;100740.19;5015431;28;20033;-75
2023/10/12 11:23:58;;;;;;;7.93;2.80;;;;;;;13.46;100.00;100749.34;5015781;28;20033;-75
2023/10/12 11:26:26;;;;;;;5.55;1.63;;;;;;;13.28;100.00;100748.97;5015080;28;20133;-75
2023/10/12 11:29:06;;;;;;;10.38;3.30;;;;;;;13.35;100.00;100752.59;4999228;28;20349;-75
2023/10/12 11:31:33;;;;;;;6.70;2.33;;;;;;;13.53;100.00;100750.25;4999365;28;20049;-74
2023/10/12 11:34:00;;;;;;;4.18;1.60;;;;;;;13.77;100.00;100740.03;4999004;28;20547;-74
2023/10/12 11:36:45;;;;;;;8.77;2.33;;;;;;;13.84;100.00;100739.06;5015724;28;20061;-74
2023/10/12 11:39:17;;;;;;;5.43;2.72;;;;;;;13.80;100.00;100740.47;4999561;28;20052;-74
2023/10/12 11:42:06;;;;;;;6.63;2.00;;;;;;;13.99;100.00;100728.13;4982774;28;20046;-74
2023/10/12 11:44:36;;;;;;;5.55;2.33;;;;;;;14.34;100.00;100719.13;4983637;28;20034;-74
2023/10/12 11:47:10;;;;;;;5.15;1.98;;;;;;;14.34;100.00;100714.56;4994815;28;20092;-74
2023/10/12 11:49:56;;;;;;;;;;;;;;;14.35;100.00;100715.41;4983976;28;20030;-74
2023/10/12 11:52:33;;;;;;;11.70;3.45;;;;;;;14.53;100.00;100699.50;4999172;28;20399;-74
2023/10/12 11:55:19;;;;;;;24.60;10.68;;;;;;;14.78;100.00;100686.22;5015732;28;20033;-74
2023/10/12 11:57:48;;;;;;;5.03;2.00;;;;;;;14.74;100.00;100684.97;5030560;28;20033;-74
2023/10/12 12:02:57;;;;;;;6.72;2.30;;;;;;;14.48;100.00;100685.69;5015894;28;20040;-73
2023/10/12 12:05:33;;;;;;;9.30;1.90;;;;;;;14.29;100.00;100679.19;5014900;28;20540;-74
2023/10/12 12:08:05;;;;;;;5.18;2.38;;;;;;;13.99;100.00;100679.44;4983537;28;20056;-74
2023/10/12 12:13:15;;;;;;;5.25;2.03;;;;;;;14.08;100.00;100675.56;5000198;28;20446;-74
2023/10/12 12:15:46;;;;;;;6.07;3.70;;;;;;;14.00;100.00;100664.91;4999350;28;20493;-73
2023/10/12 12:18:19;;;;;;;8.10;2.42;;;;;;;13.82;100.00;100665.44;4985500;28;20407;-74
2023/10/12 12:20:52;;;;;;;;;;;;;;;13.67;100.00;100666.59;4987396;28;20037;-74
2023/10/12 12:23:19;;;;;;;6.00;1.73;;;;;;;13.44;100.00;100664.97;5018868;28;20364;-74
2023/10/12 12:25:47;;;;;;;6.68;1.80;;;;;;;13.29;100.00;100664.25;5019086;28;20500;-73
2023/10/12 12:28:18;;;;;;;10.07;4.68;;;;;;;13.27;100.00;100652.81;4986080;28;20026;-74
2023/10/12 12:30:51;;;;;;;13.43;4.45;;;;;;;13.38;100.00;100649.56;5018699;28;20461;-74
2023/10/12 12:33:21;;;;;;;11.25;5.95;;;;;;;13.64;100.00;100647.03;4972318;28;20046;-74
2023/10/12 12:35:54;;;;;;;9.20;2.80;;;;;;;13.74;100.00;100645.88;5018536;28;20133;-73
2023/10/12 12:39:09;;;;;;;6.95;2.10;;;;;;;13.47;100.00;100643.00;4986947;28;20425;-74
2023/10/12 12:41:18;;;;;;;9.88;6.45;;;;;;;13.13;100.00;100641.88;4999735;28;20053;-74
2023/10/12 12:43:47;;;;;;;7.22;3.13;;;;;;;13.13;100.00;100638.34;4986917;28;20569;-74
2023/10/12 12:46:13;;;;;;;12.05;4.82;;;;;;;12.96;100.00;100621.59;5002024;28;20044;-74
2023/10/12 12:48:42;;;;;;;16.42;7.90;;;;;;;12.86;100.00;100630.03;5001819;28;20087;-74
2023/10/12 12:51:11;;;;;;;30.38;20.27;;;;;;;12.68;100.00;100624.25;5003442;28;20034;-74
2023/10/12 12:53:38;;;;;;;11.32;6.90;;;;;;;12.43;100.00;100616.53;5018559;28;20080;-74
2023/10/12 12:56:10;;;;;;;14.50;7.53;;;;;;;12.29;100.00;100614.72;4985665;28;20025;-76
2023/10/12 12:58:37;;;;;;;7.72;3.10;;;;;;;12.40;100.00;100608.00;5002317;28;20034;-74
2023/10/12 13:01:03;;;;;;;6.63;2.03;;;;;;;12.63;100.00;100605.94;5017960;28;20030;-74
2023/10/12 13:03:29;;;;;;;6.95;4.70;;;;;;;12.78;100.00;100611.28;4985523;28;20058;-74
2023/10/12 13:05:55;;;;;;;7.45;4.95;;;;;;;12.90;100.00;100603.47;5017620;28;20077;-75
2023/10/12 13:08:22;;;;;;;6.30;5.00;;;;;;;13.06;100.00;100597.78;4985803;28;20426;-74
2023/10/12 13:10:48;;;;;;;5.18;3.00;;;;;;;12.97;100.00;100601.69;5001943;28;20030;-74
2023/10/12 13:13:14;;;;;;;7.68;2.10;;;;;;;12.86;100.00;100592.25;5017266;28;20084;-74
2023/10/12 13:15:47;;;;;;;6.97;3.72;;;;;;;12.99;100.00;100602.28;4984898;28;20057;-75
2023/10/12 13:18:15;;;;;;;11.00;3.72;;;;;;;13.18;100.00;100593.53;5001203;28;20072;-75